Tropical Cyclones
[Index]
Main Index Home Page Stock Weather Photos Extreme Storms Discussion Storm News and Storm Chasing Reports Tropical Cyclones / Hurricanes / Typhoons Weather Data and Links Wild Fires / Bushfires Weather Observation Techniques Weather Picture Catalogue Tornado Pictures and Reports Stock Video Footage and DVDs for sale
Season 1968-1969 Tropical Cyclone COLLEEN Track Map
Season 1968-1969 Summaries: [BoM-AU] [JTWC-AU] [JTWC-SIO] [JTWC-SPAC] [JTWC-SH]
<<- Previous TC | BoM 1968-1969 Season | Next TC ->>

click for intensity scale information  Lat/long Grid: Show Hide

 Date Labels: Show Hide

Bureau of Meteorology Tropical Cyclone Data

Name: COLLEEN
Number: 443 / 196869_08

27 Jan 1969 05:00 UTC to 04 Feb 1969 23:00 UTC

    date/time    lat    long    hPa   cat  kts
1969-01-27 05    7.5   161.3   1003                     
1969-01-27 11    7.5   160.0   1003                     
1969-01-27 23    7.9   157.4   1002                     
1969-01-28 11    8.7   155.7   1001                     
1969-01-28 17    9.3   155.1   1000                     
1969-01-28 23   10.0   155.2    999                     
1969-01-29 11   11.0   156.1    992    1                
1969-01-29 18   11.5   156.7    988    1                
1969-01-29 21   11.6   157.0    988    1                
1969-01-29 23   11.8   157.3    987    1                
1969-01-30 05   12.0   158.0    986    1                
1969-01-30 11   12.4   158.8    984    2                
1969-01-30 21   12.8   160.0    984    2                
1969-01-30 23   13.0   160.3    984    2                
1969-01-31 08   14.0   161.7    982    2                
1969-01-31 11   14.5   162.2    982    2                
1969-01-31 17   15.3   163.2    979    2                
1969-01-31 23   17.2   164.6    975    2                
1969-02-01 05   18.9   165.5    970    3                
1969-02-01 11   20.7   166.3    966    3                
1969-02-01 15   21.6   166.3    964    3                
1969-02-01 17   22.1   166.3    963    3                
1969-02-01 23   23.7   167.0    963    3                
1969-02-02 05   24.7   167.6    964    3                
1969-02-02 11   25.6   167.6    966    3                
1969-02-02 23   27.7   167.2    973    2                
1969-02-03 05   28.4   166.6    976    2                
1969-02-03 11   29.0   166.2    980    2                
1969-02-03 23   30.0   164.8    982    2                
1969-02-04 11   31.2   163.7    990    1                
1969-02-04 23   32.0   163.7    990    1                
Winds are 10-min average.

Tropical cyclone tracks developed by Michael Bath using data from the Bureau of Meteorology and Google Maps.


[Australian Severe Weather index] [Copyright Notice] [Email Contacts] [Search This Site] [Privacy Policy]
Document: tropical_cyclone_colleen.htm Updated: 30 May 2013